createdAt,value
2023-04-12T00:00:12.152Z,100810.75
2023-04-12T00:02:42.529Z,100808.34
2023-04-12T00:05:11.810Z,100799.91
2023-04-12T00:07:40.803Z,100802.56
2023-04-12T00:10:10.669Z,100802.97
2023-04-12T00:12:41.033Z,100796.47
2023-04-12T00:15:12.064Z,100785.41
2023-04-12T00:17:40.506Z,100786.91
2023-04-12T00:20:12.948Z,100792.78
2023-04-12T00:22:42.015Z,100782.22
2023-04-12T00:25:11.222Z,100778.81
2023-04-12T00:27:40.834Z,100777.53
2023-04-12T00:30:12.653Z,100774.44
2023-04-12T00:32:42.404Z,100771.31
2023-04-12T00:35:11.253Z,100784.38
2023-04-12T00:37:41.863Z,100772.16
2023-04-12T00:40:11.280Z,100771.91
2023-04-12T00:42:39.732Z,100764.03
2023-04-12T00:45:09.400Z,100770.63
2023-04-12T00:47:40.390Z,100770.22
2023-04-12T00:50:10.113Z,100777.22
2023-04-12T00:52:39.241Z,100773.03
2023-04-12T00:55:09.519Z,100776.97
2023-04-12T00:57:39.945Z,100769.97
2023-04-12T01:00:14.972Z,100769.38
2023-04-12T01:02:48.552Z,100762.28
2023-04-12T01:05:22.048Z,100770.34
2023-04-12T01:08:06.286Z,100766.19
2023-04-12T01:10:42.995Z,100757.03
2023-04-12T01:13:22.706Z,100752.66
2023-04-12T01:15:59.025Z,100752.53
2023-04-12T01:18:34.946Z,100745.06
2023-04-12T01:21:08.972Z,100739.56
2023-04-12T01:24:15.049Z,100736.69
2023-04-12T01:26:45.580Z,100734.91
2023-04-12T01:29:18.104Z,100725.59
2023-04-12T01:31:53.389Z,100716.63
2023-04-12T01:34:26.016Z,100717.72
2023-04-12T01:36:56.632Z,100715.84
2023-04-12T01:39:25.119Z,100701.56
2023-04-12T01:41:53.573Z,100705.50
2023-04-12T01:44:23.329Z,100701.50
2023-04-12T01:46:53.961Z,100692.78
2023-04-12T01:49:25.502Z,100692.06
2023-04-12T01:52:00.749Z,100528.44
2023-04-12T01:54:31.598Z,100660.69
2023-04-12T01:57:03.757Z,100672.31
2023-04-12T01:59:40.681Z,100672.69
2023-04-12T02:02:10.474Z,100672.72
2023-04-12T02:04:39.923Z,100679.00
2023-04-12T02:07:09.607Z,100665.25
2023-04-12T02:09:39.081Z,100667.31
2023-04-12T02:12:08.985Z,100659.41
2023-04-12T02:14:39.290Z,100661.69
2023-04-12T02:17:08.766Z,100662.28
2023-04-12T02:19:38.432Z,100658.16
2023-04-12T02:22:08.525Z,100660.00
2023-04-12T02:24:37.052Z,100656.75
2023-04-12T02:27:06.240Z,100654.34
2023-04-12T02:29:36.125Z,100652.13
2023-04-12T02:32:06.272Z,100655.75
2023-04-12T02:34:36.746Z,100650.47
2023-04-12T02:37:22.170Z,100651.63
2023-04-12T02:39:50.617Z,100632.72
2023-04-12T02:42:19.268Z,100627.28
2023-04-12T02:44:50.235Z,100623.41
2023-04-12T02:47:20.114Z,100624.38
2023-04-12T02:49:50.865Z,100619.59
2023-04-12T02:52:20.546Z,100624.09
2023-04-12T02:55:02.524Z,100619.97
2023-04-12T02:57:31.478Z,100623.38
2023-04-12T03:00:00.011Z,100605.63
2023-04-12T03:02:56.312Z,100597.97
2023-04-12T03:05:28.632Z,100604.25
2023-04-12T03:07:57.613Z,100609.06
2023-04-12T03:10:38.023Z,100590.72
2023-04-12T03:13:07.259Z,100594.47
2023-04-12T03:15:43.819Z,100584.91
2023-04-12T03:18:14.257Z,100579.72
2023-04-12T03:20:49.032Z,100578.28
2023-04-12T03:23:19.066Z,100571.41
2023-04-12T03:25:52.296Z,100572.13
2023-04-12T03:28:35.027Z,100573.44
2023-04-12T03:31:06.981Z,100571.25
2023-04-12T03:33:43.558Z,100577.03
2023-04-12T03:36:31.427Z,100559.53
2023-04-12T03:39:08.003Z,100570.78
2023-04-12T03:41:38.765Z,100564.03
2023-04-12T03:44:07.808Z,100558.38
2023-04-12T03:46:37.641Z,100550.22
2023-04-12T03:49:12.066Z,100554.31
2023-04-12T03:51:43.093Z,100563.69
2023-04-12T03:54:12.311Z,100562.16
2023-04-12T03:57:06.921Z,100543.47
2023-04-12T03:59:47.671Z,100538.63
2023-04-12T04:02:18.439Z,100536.34
2023-04-12T04:04:52.287Z,100542.56
2023-04-12T04:07:28.130Z,100555.13
2023-04-12T04:09:58.077Z,100554.59
2023-04-12T04:12:30.073Z,100555.88
2023-04-12T04:14:59.435Z,100561.69
2023-04-12T04:17:32.988Z,100551.91
2023-04-12T04:20:06.051Z,100555.31
2023-04-12T04:22:37.152Z,100551.25
2023-04-12T04:25:07.113Z,100549.56
2023-04-12T04:27:39.135Z,100547.88
2023-04-12T04:30:10.666Z,100543.66
2023-04-12T04:32:44.472Z,100530.03
2023-04-12T04:35:15.795Z,100527.25
2023-04-12T04:38:01.950Z,100513.38
2023-04-12T04:40:30.617Z,100519.53
2023-04-12T04:42:59.515Z,100523.38
2023-04-12T04:45:32.661Z,100529.66
2023-04-12T04:48:02.973Z,100516.88
2023-04-12T04:50:32.860Z,100508.78
2023-04-12T04:53:01.341Z,100503.47
2023-04-12T04:55:32.695Z,100510.97
2023-04-12T04:58:01.113Z,100518.31
2023-04-12T05:00:30.544Z,100509.50
2023-04-12T05:03:00.657Z,100505.03
2023-04-12T05:05:30.530Z,100499.97
2023-04-12T05:08:09.752Z,100504.19
2023-04-12T05:10:38.467Z,100399.13
2023-04-12T05:13:06.760Z,100504.69
2023-04-12T05:15:35.251Z,100503.00
2023-04-12T05:18:03.975Z,100506.50
2023-04-12T05:20:32.838Z,100506.63
2023-04-12T05:23:01.485Z,100518.56
2023-04-12T05:25:31.453Z,100513.94
2023-04-12T05:28:07.331Z,100467.13
2023-04-12T05:30:36.018Z,100513.34
2023-04-12T05:33:05.595Z,100522.78
2023-04-12T05:35:35.554Z,100527.38
2023-04-12T05:38:04.413Z,100524.13
2023-04-12T05:40:36.548Z,100519.91
2023-04-12T05:43:06.632Z,100521.13
2023-04-12T05:45:35.009Z,100517.38
2023-04-12T05:48:03.688Z,100520.75
2023-04-12T05:50:32.147Z,100517.13
2023-04-12T05:53:02.120Z,100515.91
2023-04-12T05:55:37.934Z,100513.84
2023-04-12T05:58:07.750Z,100519.16
2023-04-12T06:00:37.288Z,100509.25
2023-04-12T06:03:05.920Z,100526.69
2023-04-12T06:05:35.786Z,100519.91
2023-04-12T06:08:05.423Z,100398.56
2023-04-12T06:10:35.354Z,100520.88
2023-04-12T06:13:04.551Z,100517.25
2023-04-12T06:15:33.720Z,100517.13
2023-04-12T06:18:02.207Z,100517.28
2023-04-12T06:20:30.666Z,100514.94
2023-04-12T06:22:59.097Z,100517.06
2023-04-12T06:25:27.548Z,100520.78
2023-04-12T06:27:58.432Z,100512.13
2023-04-12T06:30:27.986Z,100514.56
2023-04-12T06:32:56.793Z,100518.19
2023-04-12T06:35:25.307Z,100511.13
2023-04-12T06:37:53.814Z,100513.91
2023-04-12T06:40:22.336Z,100509.03
2023-04-12T06:42:50.818Z,100498.03
2023-04-12T06:45:25.102Z,100505.00
2023-04-12T06:47:56.084Z,100501.94
2023-04-12T06:50:24.637Z,100498.66
2023-04-12T06:52:53.004Z,100497.66
2023-04-12T06:55:21.521Z,100492.63
2023-04-12T06:57:52.268Z,100494.31
2023-04-12T07:00:21.146Z,100477.75
2023-04-12T07:02:51.162Z,100477.97
2023-04-12T07:05:19.828Z,100480.63
2023-04-12T07:07:48.236Z,100479.09
2023-04-12T07:10:16.729Z,100479.09
2023-04-12T07:12:45.174Z,100472.88
2023-04-12T07:15:13.595Z,100460.13
2023-04-12T07:17:42.352Z,100464.66
2023-04-12T07:20:13.491Z,100476.84
2023-04-12T07:22:43.084Z,100463.59
2023-04-12T07:25:11.419Z,100470.19
2023-04-12T07:27:39.981Z,100472.03
2023-04-12T07:30:09.924Z,100468.53
2023-04-12T07:32:38.434Z,100458.81
2023-04-12T07:35:07.797Z,100461.84
2023-04-12T07:37:37.585Z,100464.69
2023-04-12T07:40:07.445Z,100466.53
2023-04-12T07:42:35.929Z,100465.34
2023-04-12T07:45:04.416Z,100463.31
2023-04-12T07:47:33.017Z,100459.50
2023-04-12T07:50:02.150Z,100466.16
2023-04-12T07:52:30.605Z,100463.63
2023-04-12T07:55:00.705Z,100463.78
2023-04-12T07:57:29.067Z,100459.19
2023-04-12T07:59:57.642Z,100447.59
2023-04-12T08:02:26.374Z,100443.22
2023-04-12T08:04:55.731Z,100437.97
2023-04-12T08:07:24.402Z,100454.44
2023-04-12T08:09:53.913Z,100451.50
2023-04-12T08:12:23.701Z,100442.91
2023-04-12T08:14:52.205Z,100444.06
2023-04-12T08:17:20.684Z,100444.22
2023-04-12T08:19:49.066Z,100442.53
2023-04-12T08:22:17.357Z,100446.06
2023-04-12T08:24:46.609Z,100457.00
2023-04-12T08:27:16.573Z,100450.22
2023-04-12T08:29:46.841Z,100439.94
2023-04-12T08:32:16.253Z,100442.81
2023-04-12T08:34:46.151Z,100450.00
2023-04-12T08:37:14.640Z,100451.69
2023-04-12T08:39:43.085Z,100454.69
2023-04-12T08:42:12.444Z,100457.19
2023-04-12T08:44:41.209Z,100435.13
2023-04-12T08:47:12.143Z,100460.06
2023-04-12T08:49:40.611Z,100458.19
2023-04-12T08:52:11.149Z,100451.63
2023-04-12T08:54:39.761Z,100454.59
2023-04-12T08:57:10.265Z,100451.00
2023-04-12T08:59:39.975Z,100453.81
2023-04-12T09:02:08.579Z,100456.66
2023-04-12T09:04:49.084Z,100457.41
2023-04-12T09:07:18.178Z,100458.72
2023-04-12T09:09:48.012Z,100464.94
2023-04-12T09:12:16.637Z,100460.09
2023-04-12T09:14:45.364Z,100435.13
2023-04-12T09:17:24.574Z,100449.56
2023-04-12T09:19:56.145Z,100459.78
2023-04-12T09:22:35.419Z,100456.16
2023-04-12T09:25:05.099Z,100442.34
2023-04-12T09:27:48.206Z,100453.03
2023-04-12T09:30:18.564Z,100439.22
2023-04-12T09:32:49.417Z,100438.47
2023-04-12T09:35:19.745Z,100434.19
2023-04-12T09:37:48.072Z,100432.31
2023-04-12T09:40:17.019Z,100433.44
2023-04-12T09:42:53.683Z,100432.16
2023-04-12T09:45:25.462Z,100425.59
2023-04-12T09:47:55.221Z,100425.66
2023-04-12T09:50:28.569Z,100420.75
2023-04-12T09:52:57.961Z,100426.13
2023-04-12T09:55:28.694Z,100423.06
2023-04-12T09:57:57.755Z,100413.31
2023-04-12T10:00:27.824Z,100420.38
2023-04-12T10:02:57.824Z,100381.47
2023-04-12T10:05:29.298Z,100411.53
2023-04-12T10:08:01.553Z,100408.19
2023-04-12T10:10:32.515Z,100415.44
2023-04-12T10:13:02.238Z,100402.16
2023-04-12T10:15:32.233Z,100398.44
2023-04-12T10:18:04.798Z,100392.22
2023-04-12T10:20:34.939Z,100405.13
2023-04-12T10:23:08.023Z,100396.03
2023-04-12T10:25:37.015Z,100395.66
2023-04-12T10:28:17.433Z,100405.69
2023-04-12T10:30:48.237Z,100413.97
2023-04-12T10:33:18.237Z,100401.66
2023-04-12T10:36:00.861Z,100396.41
2023-04-12T10:38:35.351Z,100389.47
2023-04-12T10:41:16.317Z,100381.81
2023-04-12T10:43:46.006Z,100370.03
2023-04-12T10:46:49.206Z,100362.66
2023-04-12T10:49:18.671Z,100334.50
2023-04-12T10:52:16.445Z,100363.28
2023-04-12T10:54:45.612Z,100328.94
2023-04-12T10:57:43.537Z,100362.63
2023-04-12T11:00:13.039Z,100352.91
2023-04-12T11:03:12.946Z,100350.06
2023-04-12T11:06:12.605Z,100344.50
2023-04-12T11:09:08.140Z,100346.41
2023-04-12T11:11:42.959Z,100337.97
2023-04-12T11:14:11.559Z,100334.50
2023-04-12T11:17:13.480Z,100329.16
2023-04-12T11:19:43.137Z,100331.03
2023-04-12T11:22:13.430Z,100326.72
2023-04-12T11:24:45.627Z,100323.59
2023-04-12T11:27:14.300Z,100323.41
2023-04-12T11:29:43.395Z,100323.63
2023-04-12T11:32:14.328Z,100318.88
2023-04-12T11:34:46.228Z,100287.19
2023-04-12T11:37:15.120Z,100315.56
2023-04-12T11:39:46.786Z,100287.00
2023-04-12T11:42:16.915Z,100304.94
2023-04-12T11:47:19.092Z,100316.41
2023-04-12T11:49:48.946Z,100312.66
2023-04-12T11:52:18.763Z,100317.84
2023-04-12T11:54:50.613Z,100309.09
2023-04-12T11:57:20.423Z,100300.34
2023-04-12T11:59:50.426Z,100307.84
2023-04-12T12:02:24.145Z,100298.47
2023-04-12T12:04:53.606Z,100295.53
2023-04-12T12:07:22.927Z,100294.72
2023-04-12T12:09:53.401Z,100291.59
2023-04-12T12:12:25.242Z,100285.72
2023-04-12T12:14:53.712Z,100283.00
2023-04-12T12:17:22.189Z,100277.78
2023-04-12T12:19:50.536Z,100282.56
2023-04-12T12:22:21.797Z,100284.44
2023-04-12T12:24:56.101Z,100282.13
2023-04-12T12:27:26.088Z,100276.06
2023-04-12T12:29:56.578Z,100260.59
2023-04-12T12:32:25.896Z,100257.91
2023-04-12T12:34:56.021Z,100245.31
2023-04-12T12:37:28.794Z,100244.03
2023-04-12T12:40:11.651Z,100237.09
2023-04-12T12:42:47.535Z,100228.91
2023-04-12T12:45:16.356Z,100220.09
2023-04-12T12:47:49.514Z,100220.91
2023-04-12T12:50:22.633Z,100215.44
2023-04-12T12:52:52.959Z,100220.56
2023-04-12T12:55:23.239Z,100207.19
2023-04-12T12:58:06.870Z,100205.69
2023-04-12T13:00:37.440Z,100203.81
2023-04-12T13:03:06.223Z,100205.91
2023-04-12T13:05:34.868Z,100202.53
2023-04-12T13:08:03.253Z,100211.31
2023-04-12T13:10:33.049Z,100212.72
2023-04-12T13:13:01.780Z,100214.31
2023-04-12T13:15:30.304Z,100207.00
2023-04-12T13:17:58.713Z,100211.81
2023-04-12T13:20:27.493Z,100209.69
2023-04-12T13:22:56.156Z,100214.69
2023-04-12T13:25:24.619Z,100218.69
2023-04-12T13:27:54.464Z,100211.81
2023-04-12T13:30:23.007Z,100201.38
2023-04-12T13:32:51.583Z,100214.00
2023-04-12T13:35:20.083Z,100217.97
2023-04-12T13:37:48.532Z,100213.16
2023-04-12T13:40:16.925Z,100217.53
2023-04-12T13:42:45.549Z,100205.47
2023-04-12T13:45:15.791Z,100201.91
2023-04-12T13:47:44.253Z,100201.72
2023-04-12T13:50:12.805Z,100201.72
2023-04-12T13:52:41.417Z,100190.66
2023-04-12T13:55:10.508Z,100194.00
2023-04-12T13:57:38.882Z,100189.63
2023-04-12T14:00:10.060Z,100189.38
2023-04-12T14:02:40.176Z,100192.72
2023-04-12T14:05:09.573Z,100197.34
2023-04-12T14:07:38.038Z,100201.31
2023-04-12T14:10:07.423Z,100196.31
2023-04-12T14:12:35.968Z,100190.28
2023-04-12T14:15:04.841Z,100184.03
2023-04-12T14:17:33.475Z,100181.53
2023-04-12T14:20:06.615Z,100185.59
2023-04-12T14:22:36.042Z,100174.78
2023-04-12T14:25:04.548Z,100183.97
2023-04-12T14:27:33.058Z,100180.59
2023-04-12T14:30:01.651Z,100164.09
2023-04-12T14:32:30.233Z,100163.75
2023-04-12T14:34:58.632Z,100166.25
2023-04-12T14:37:28.460Z,100173.13
2023-04-12T14:39:56.855Z,100165.41
2023-04-12T14:42:25.298Z,100153.31
2023-04-12T14:44:53.696Z,100160.56
2023-04-12T14:47:22.190Z,100169.72
2023-04-12T14:49:50.797Z,100164.06
2023-04-12T14:52:19.454Z,100167.00
2023-04-12T14:54:49.251Z,100164.06
2023-04-12T14:57:17.675Z,100162.41
2023-04-12T14:59:46.113Z,100162.22
2023-04-12T15:02:14.613Z,100165.16
2023-04-12T15:04:43.306Z,100166.44
2023-04-12T15:07:11.838Z,100155.88
2023-04-12T15:09:40.269Z,100162.00
2023-04-12T15:12:10.031Z,100162.63
2023-04-12T15:14:38.373Z,100160.59
2023-04-12T15:17:06.820Z,100162.09
2023-04-12T15:19:35.246Z,100161.34
2023-04-12T15:22:03.620Z,100166.56
2023-04-12T15:24:32.210Z,100168.25
2023-04-12T15:27:02.678Z,100169.09
2023-04-12T15:29:33.544Z,100182.09
2023-04-12T15:32:02.049Z,100179.19
2023-04-12T15:34:34.065Z,100189.25
2023-04-12T15:37:02.856Z,100202.44
2023-04-12T15:39:31.380Z,100198.69
2023-04-12T15:42:00.477Z,100218.88
2023-04-12T15:44:31.942Z,100211.63
2023-04-12T15:47:11.011Z,100204.56
2023-04-12T15:49:40.634Z,100210.59
2023-04-12T15:52:09.245Z,100207.69
2023-04-12T15:54:43.548Z,100210.41
2023-04-12T15:57:12.373Z,100188.28
2023-04-12T15:59:42.029Z,100212.47
2023-04-12T16:02:12.232Z,100215.81
2023-04-12T16:04:40.810Z,100231.22
2023-04-12T16:07:09.481Z,100250.97
2023-04-12T16:09:39.881Z,100226.84
2023-04-12T16:12:08.591Z,100236.41
2023-04-12T16:14:37.230Z,100241.59
2023-04-12T16:17:06.277Z,100248.69
2023-04-12T16:19:36.030Z,100258.84
2023-04-12T16:22:04.929Z,100265.28
2023-04-12T16:24:33.389Z,100262.94
2023-04-12T16:27:02.469Z,100269.50
2023-04-12T16:29:31.751Z,100283.19
2023-04-12T16:32:00.217Z,100281.47
2023-04-12T16:34:28.806Z,100291.16
2023-04-12T16:36:58.575Z,100304.19
2023-04-12T16:39:29.325Z,100307.06
2023-04-12T16:41:57.735Z,100311.09
2023-04-12T16:44:26.080Z,100328.28
2023-04-12T16:46:56.368Z,100336.53
2023-04-12T16:49:24.790Z,100332.53
2023-04-12T16:51:53.168Z,100357.19
2023-04-12T16:54:22.969Z,100348.25
2023-04-12T16:56:51.484Z,100353.97
2023-04-12T16:59:19.995Z,100357.25
2023-04-12T17:01:48.476Z,100355.97
2023-04-12T17:04:17.699Z,100360.00
2023-04-12T17:06:46.229Z,100360.94
2023-04-12T17:09:14.559Z,100368.56
2023-04-12T17:11:44.368Z,100367.28
2023-04-12T17:14:13.857Z,100367.09
2023-04-12T17:16:42.608Z,100371.00
2023-04-12T17:19:10.956Z,100373.16
2023-04-12T17:21:42.875Z,100373.16
2023-04-12T17:24:11.389Z,100371.22
2023-04-12T17:26:40.508Z,100380.19
2023-04-12T17:29:10.458Z,100367.03
2023-04-12T17:31:39.544Z,100378.09
2023-04-12T17:34:08.284Z,100369.53
2023-04-12T17:36:36.625Z,100378.97
2023-04-12T17:39:05.337Z,100387.38
2023-04-12T17:41:33.769Z,100397.03
2023-04-12T17:44:02.170Z,100401.59
2023-04-12T17:46:32.075Z,100396.94
2023-04-12T17:49:04.148Z,100405.50
2023-04-12T17:51:33.481Z,100410.31
2023-04-12T17:54:03.690Z,100417.91
2023-04-12T17:56:32.024Z,100421.81
2023-04-12T17:59:02.203Z,100424.22
2023-04-12T18:01:32.139Z,100423.94
2023-04-12T18:04:03.177Z,100429.41
2023-04-12T18:06:32.518Z,100439.03
2023-04-12T18:09:01.582Z,100436.56
2023-04-12T18:11:30.110Z,100429.44
2023-04-12T18:13:58.750Z,100434.63
2023-04-12T18:16:29.382Z,100431.47
2023-04-12T18:18:59.574Z,100409.34
2023-04-12T18:21:29.038Z,100417.53
2023-04-12T18:23:57.817Z,100404.31
2023-04-12T18:26:26.558Z,100421.38
2023-04-12T18:28:55.057Z,100438.00
2023-04-12T18:31:23.682Z,100435.50
2023-04-12T18:33:52.335Z,100432.31
2023-04-12T18:36:22.084Z,100436.88
2023-04-12T18:38:50.494Z,100437.22
2023-04-12T18:41:19.036Z,100435.19
2023-04-12T18:43:47.489Z,100448.81
2023-04-12T18:46:17.954Z,100442.94
2023-04-12T18:48:48.191Z,100444.13
2023-04-12T18:51:16.773Z,100426.50
2023-04-12T18:53:46.850Z,100416.66
2023-04-12T18:56:18.308Z,100416.84
2023-04-12T18:58:54.996Z,100418.03
2023-04-12T19:01:25.285Z,100418.53
2023-04-12T19:03:54.013Z,100425.78
2023-04-12T19:06:22.575Z,100432.03
2023-04-12T19:08:52.342Z,100442.16
2023-04-12T19:11:20.798Z,100448.06
2023-04-12T19:13:50.205Z,100445.91
2023-04-12T19:16:19.426Z,100455.50
2023-04-12T19:18:47.837Z,100454.50
2023-04-12T19:21:16.332Z,100460.53
2023-04-12T19:23:45.104Z,100463.09
2023-04-12T19:26:14.919Z,100479.06
2023-04-12T19:28:43.790Z,100484.97
2023-04-12T19:31:14.150Z,100486.31
2023-04-12T19:33:42.741Z,100492.00
2023-04-12T19:36:11.962Z,100497.38
2023-04-12T19:38:41.527Z,100501.41
2023-04-12T19:41:09.966Z,100499.75
2023-04-12T19:43:39.750Z,100507.47
2023-04-12T19:46:08.739Z,100508.13
2023-04-12T19:48:37.866Z,100520.91
2023-04-12T19:51:07.471Z,100526.28
2023-04-12T19:53:36.008Z,100532.63
2023-04-12T19:56:05.975Z,100531.78
2023-04-12T19:58:34.785Z,100544.88
2023-04-12T20:01:05.712Z,100553.59
2023-04-12T20:03:34.245Z,100557.78
2023-04-12T20:06:04.588Z,100559.94
2023-04-12T20:08:34.208Z,100557.25
2023-04-12T20:11:02.871Z,100553.38
2023-04-12T20:13:31.918Z,100540.09
2023-04-12T20:16:01.386Z,100548.97
2023-04-12T20:18:31.214Z,100550.44
2023-04-12T20:20:59.521Z,100561.28
2023-04-12T20:23:28.067Z,100579.03
2023-04-12T20:25:56.338Z,100594.91
2023-04-12T20:28:25.829Z,100591.56
2023-04-12T20:30:54.336Z,100591.47
2023-04-12T20:33:22.756Z,100586.78
2023-04-12T20:35:52.653Z,100581.19
2023-04-12T20:38:21.064Z,100583.34
2023-04-12T20:40:49.927Z,100573.09
2023-04-12T20:43:18.338Z,100575.25
2023-04-12T20:45:46.868Z,100576.59
2023-04-12T20:48:15.456Z,100581.22
2023-04-12T20:50:43.872Z,100583.03
2023-04-12T20:53:15.923Z,100582.97
2023-04-12T20:55:44.403Z,100586.78
2023-04-12T20:58:13.389Z,100594.19
2023-04-12T21:00:41.969Z,100589.75
2023-04-12T21:03:12.495Z,100590.00
2023-04-12T21:05:41.343Z,100595.97
2023-04-12T21:08:10.246Z,100609.66
2023-04-12T21:10:40.966Z,100620.81
2023-04-12T21:13:09.341Z,100630.91
2023-04-12T21:15:38.546Z,100635.31
2023-04-12T21:18:07.219Z,100634.28
2023-04-12T21:20:35.684Z,100628.91
2023-04-12T21:23:07.130Z,100638.13
2023-04-12T21:25:36.058Z,100639.41
2023-04-12T21:28:06.893Z,100654.38
2023-04-12T21:30:36.034Z,100655.97
2023-04-12T21:33:04.542Z,100649.31
2023-04-12T21:35:34.396Z,100641.88
2023-04-12T21:38:02.799Z,100635.13
2023-04-12T21:40:31.260Z,100643.00
2023-04-12T21:42:59.690Z,100638.25
2023-04-12T21:45:29.570Z,100636.28
2023-04-12T21:47:58.004Z,100648.81
2023-04-12T21:50:26.429Z,100642.75
2023-04-12T21:52:55.725Z,100641.69
2023-04-12T21:55:24.369Z,100650.41
2023-04-12T21:57:53.101Z,100655.91
2023-04-12T22:00:22.237Z,100653.56
2023-04-12T22:02:52.118Z,100650.47
2023-04-12T22:05:20.664Z,100641.63
2023-04-12T22:07:49.025Z,100654.81
2023-04-12T22:10:18.877Z,100656.97
2023-04-12T22:12:50.291Z,100653.59
2023-04-12T22:15:19.713Z,100644.72
2023-04-12T22:17:48.514Z,100637.16
2023-04-12T22:20:18.474Z,100635.75
2023-04-12T22:22:47.116Z,100634.91
2023-04-12T22:25:15.961Z,100644.19
2023-04-12T22:27:46.488Z,100641.94
2023-04-12T22:30:15.962Z,100648.53
2023-04-12T22:32:44.467Z,100650.34
2023-04-12T22:35:13.061Z,100647.22
2023-04-12T22:37:43.389Z,100645.66
2023-04-12T22:40:14.113Z,100638.47
2023-04-12T22:42:47.475Z,100619.63
2023-04-12T22:45:16.405Z,100634.50
2023-04-12T22:47:45.166Z,100631.09
2023-04-12T22:50:14.216Z,100634.06
2023-04-12T22:52:44.056Z,100631.53
2023-04-12T22:55:14.323Z,100632.50
2023-04-12T22:57:42.656Z,100638.56
2023-04-12T23:00:16.429Z,100634.91
2023-04-12T23:02:46.539Z,100629.31
2023-04-12T23:05:16.514Z,100625.63
2023-04-12T23:07:46.444Z,100625.09
2023-04-12T23:10:14.948Z,100621.53
2023-04-12T23:12:43.566Z,100616.03
2023-04-12T23:15:12.810Z,100624.28
2023-04-12T23:17:41.322Z,100624.13
2023-04-12T23:20:13.380Z,100626.16
2023-04-12T23:22:57.397Z,100629.47
2023-04-12T23:25:39.617Z,100638.28
2023-04-12T23:28:12.915Z,100639.91
2023-04-12T23:30:45.334Z,100640.16
2023-04-12T23:33:14.062Z,100650.88
2023-04-12T23:35:43.844Z,100651.91
2023-04-12T23:38:15.746Z,100649.16
2023-04-12T23:40:46.942Z,100656.53
2023-04-12T23:43:15.388Z,100656.50
2023-04-12T23:45:43.738Z,100658.31
2023-04-12T23:48:12.640Z,100665.81
2023-04-12T23:50:41.095Z,100670.63
2023-04-12T23:53:09.474Z,100669.78
2023-04-12T23:55:37.769Z,100656.63
2023-04-12T23:58:07.570Z,100655.69
